Aérodrome :
LOGIN :

S'inscrire | Disclaimer

   EN    FR    IT 

 










Légende :    VFR   VFR Marginal   IFR   IFR Intensif   IFR Très Intensif
Visi : 
Plafond : 
>= 8 km
>= 3000ft
5 à 8 km
1000 à 3000 ft
1500m à 5 km
500 à 1000 ft
800 à 1500m
200 à 500 ft
< 800m
< 200 ft
Symboles :   Orages  Brouillard  Fortes neiges  Fortes précipitations  Vent > 20 kt
SIGMETs :   Divers  Orages  Givrage  Turbulence  Onde Orograph.  Cendres Volcan.







- Altitude de l'aérodrome : 218 ft
- Code IATA : LBG
- Voir les cartes d'approche


LFPB - Paris / Le Bourget

DERNIER METAR :
  • 261730Z AUTO 33009KT 290V360 9999 FEW038/// ///TCU 07/01 Q1015 BECMG SCT030

METARs EXPIRÉS :
  • 261700Z AUTO 33009KT 290V020 9999 BKN039/// BKN062/// ///TCU 08/01 Q1015 TEMPO SCT025CB
  • 261630Z AUTO 36006KT 330V040 9999 FEW032/// SCT078/// ///TCU 08/02 Q1015 TEMPO SCT025CB
  • 261600Z AUTO 35004KT 280V030 9999 BKN028/// OVC034/// ///CB 07/03 Q1015 NOSIG
  • 261530Z AUTO 05010G20KT 350V080 9999 -TSRA FEW020/// BKN035/// OVC044/// ///CB 07/03 Q1015 BECMG NSW
  • 261500Z AUTO 02010G23KT 320V070 9999 -RA FEW019/// SCT029/// BKN038/// ///CB 08/01 Q1014 TEMPO 2500 -TSRAGS
  • 261430Z AUTO 32008KT 250V030 9999 SCT044/// SCT052/// BKN088/// ///CB 12/M00 Q1014 TEMPO 36015G25KT 2500 -TSRAGS

TAF TAF LFPB
Valide du 26 à 18h jusqu'au 27 à 18h UTC


261700Z 2618/2718 34010KT 9999 SCT030
BECMG 2620/2622 NSC
PROB30
TEMPO 2701/2705 4000 BR
TEMPO 2712/2718 SCT030
ATIS : +33 1 48 62 43 92
Pas de NOTAMs connus pour ce terrain.



MET'MAP, la Météo Aéronautique d'un coup d'oeil ! - Copyright ORBIFLY Décembre 2007 - Disclaimer

ORBIFLY MET'MAP TEAM :

Programmation & Développement : Alexandra Zaïnal
Conception & Développement : Baudouin d'Aumeries
Co-Programmation & Développement : Marc-Olivier Méhu
Soutien technique & logistique : Manuel Goepfert

Contact : metmap@orbifly.com




SOURCES & CREDITS :

   NOAA